createdAt,value
2019-01-30T00:02:09.056Z,0.00
2019-01-30T00:04:38.084Z,-0.20
2019-01-30T00:07:07.240Z,-0.10
2019-01-30T00:09:36.288Z,-0.10
2019-01-30T00:12:05.252Z,0.10
2019-01-30T00:14:34.288Z,0.10
2019-01-30T00:17:03.395Z,0.10
2019-01-30T00:19:32.409Z,0.10
2019-01-30T00:22:01.635Z,0.10
2019-01-30T00:24:30.665Z,0.10
2019-01-30T00:26:59.869Z,0.00
2019-01-30T00:29:28.972Z,0.00
2019-01-30T00:31:58.048Z,0.00
2019-01-30T00:34:27.096Z,-0.10
2019-01-30T00:36:56.083Z,-0.10
2019-01-30T00:39:25.371Z,-0.10
2019-01-30T00:41:54.429Z,-0.10
2019-01-30T00:44:23.485Z,-0.10
2019-01-30T00:46:52.531Z,-0.20
2019-01-30T00:49:21.531Z,-0.20
2019-01-30T00:51:50.560Z,-0.30
2019-01-30T00:54:19.615Z,-0.20
2019-01-30T00:56:48.609Z,-0.30
2019-01-30T00:59:17.554Z,-0.20
2019-01-30T01:01:46.538Z,-0.30
2019-01-30T01:04:15.503Z,-0.20
2019-01-30T01:06:44.591Z,-0.20
2019-01-30T01:09:13.647Z,-0.20
2019-01-30T01:11:42.740Z,-0.10
2019-01-30T01:14:11.855Z,-0.20
2019-01-30T01:16:40.897Z,-0.20
2019-01-30T01:19:09.826Z,-0.20
2019-01-30T01:21:38.905Z,-0.20
2019-01-30T01:24:07.813Z,-0.20
2019-01-30T01:26:36.908Z,-0.20
2019-01-30T01:29:06.045Z,-0.20
2019-01-30T01:31:34.999Z,-0.30
2019-01-30T01:34:03.995Z,-0.30
2019-01-30T01:36:33.108Z,-0.40
2019-01-30T01:39:02.128Z,-0.50
2019-01-30T01:41:31.025Z,-0.30
2019-01-30T01:44:00.200Z,-0.30
2019-01-30T01:46:29.137Z,-0.30
2019-01-30T01:48:58.220Z,-0.20
2019-01-30T01:51:27.280Z,-0.30
2019-01-30T01:53:56.256Z,-0.30
2019-01-30T01:56:25.373Z,-0.30
2019-01-30T01:58:54.341Z,-0.40
2019-01-30T02:01:23.444Z,-0.30
2019-01-30T02:03:52.416Z,-0.30
2019-01-30T02:06:21.492Z,-0.30
2019-01-30T02:08:50.552Z,-0.20
2019-01-30T02:11:19.609Z,-0.30
2019-01-30T02:13:48.857Z,-0.30
2019-01-30T02:16:17.882Z,-0.20
2019-01-30T02:18:46.870Z,-0.30
2019-01-30T02:23:44.284Z,-0.20
2019-01-30T02:26:13.328Z,-0.10
2019-01-30T02:28:42.313Z,-0.20
2019-01-30T02:31:11.273Z,-0.10
2019-01-30T02:33:40.347Z,-0.10
2019-01-30T02:36:09.362Z,-0.10
2019-01-30T02:38:38.356Z,-0.10
2019-01-30T02:41:07.348Z,-0.10
2019-01-30T02:43:36.318Z,-0.30
2019-01-30T02:46:06.845Z,-0.30
2019-01-30T02:48:36.017Z,-0.30
2019-01-30T02:51:06.403Z,-0.30
2019-01-30T02:53:35.543Z,-0.20
2019-01-30T02:56:04.591Z,-0.30
2019-01-30T02:58:33.584Z,-0.40
2019-01-30T03:01:02.853Z,-0.40
2019-01-30T03:03:31.853Z,-0.30
2019-01-30T03:06:00.764Z,-0.20
2019-01-30T03:08:29.845Z,0.00
2019-01-30T03:10:58.998Z,0.10
2019-01-30T03:13:27.869Z,0.10
2019-01-30T03:15:56.773Z,0.10
2019-01-30T03:18:25.738Z,0.10
2019-01-30T03:20:54.573Z,0.10
2019-01-30T03:23:23.617Z,0.10
2019-01-30T03:25:52.744Z,0.10
2019-01-30T03:28:21.708Z,0.10
2019-01-30T03:30:51.025Z,0.10
2019-01-30T03:33:20.178Z,0.10
2019-01-30T03:35:49.249Z,0.20
2019-01-30T03:38:18.304Z,0.20
2019-01-30T03:40:47.375Z,0.10
2019-01-30T03:43:16.428Z,0.20
2019-01-30T03:45:45.507Z,0.30
2019-01-30T03:48:14.517Z,0.20
2019-01-30T03:50:43.572Z,0.10
2019-01-30T03:53:12.645Z,0.00
2019-01-30T03:55:41.508Z,0.10
2019-01-30T03:58:10.480Z,0.10
2019-01-30T04:00:39.549Z,0.10
2019-01-30T04:03:08.498Z,0.10
2019-01-30T04:05:37.785Z,0.20
2019-01-30T04:08:06.824Z,0.20
2019-01-30T04:10:35.788Z,0.20
2019-01-30T04:13:04.889Z,0.20
2019-01-30T04:15:33.861Z,0.30
2019-01-30T04:18:02.837Z,0.20
2019-01-30T04:20:32.096Z,0.20
2019-01-30T04:23:01.400Z,0.20
2019-01-30T04:25:30.280Z,0.20
2019-01-30T04:27:59.569Z,0.20
2019-01-30T04:30:28.620Z,0.20
2019-01-30T04:32:57.772Z,0.20
2019-01-30T04:35:26.807Z,0.20
2019-01-30T04:37:55.845Z,0.20
2019-01-30T04:40:24.932Z,0.20
2019-01-30T04:42:53.971Z,0.30
2019-01-30T04:45:24.396Z,0.40
2019-01-30T04:47:53.328Z,0.40
2019-01-30T04:50:22.293Z,0.20
2019-01-30T04:52:51.357Z,0.20
2019-01-30T04:55:20.395Z,0.20
2019-01-30T04:57:49.369Z,0.30
2019-01-30T05:00:20.621Z,0.40
2019-01-30T05:02:49.656Z,0.40
2019-01-30T05:05:18.652Z,0.30
2019-01-30T05:07:47.690Z,0.30
2019-01-30T05:10:16.868Z,0.30
2019-01-30T05:12:45.833Z,0.20
2019-01-30T05:15:16.660Z,0.20
2019-01-30T05:17:45.782Z,0.20
2019-01-30T05:20:16.114Z,0.20
2019-01-30T05:22:45.274Z,0.30
2019-01-30T05:25:14.876Z,0.40
2019-01-30T05:27:43.895Z,0.40
2019-01-30T05:30:21.520Z,0.40
2019-01-30T05:32:50.504Z,0.40
2019-01-30T05:35:19.530Z,0.50
2019-01-30T05:37:51.194Z,0.50
2019-01-30T05:40:19.230Z,0.50
2019-01-30T05:42:48.256Z,0.30
2019-01-30T05:45:17.275Z,0.20
2019-01-30T05:47:46.384Z,0.30
2019-01-30T05:50:15.450Z,0.40
2019-01-30T05:52:44.472Z,0.50
2019-01-30T05:55:14.877Z,0.60
2019-01-30T05:57:44.056Z,0.60
2019-01-30T06:00:16.074Z,0.60
2019-01-30T06:02:44.985Z,0.40
2019-01-30T06:05:13.912Z,0.50
2019-01-30T06:07:43.065Z,0.50
2019-01-30T06:10:12.105Z,0.40
2019-01-30T06:12:41.175Z,0.50
2019-01-30T06:15:11.908Z,0.60
2019-01-30T06:17:40.930Z,0.70
2019-01-30T06:20:14.402Z,0.70
2019-01-30T06:22:43.588Z,0.80
2019-01-30T06:25:12.631Z,0.80
2019-01-30T06:27:41.748Z,0.80
2019-01-30T06:30:12.452Z,0.80
2019-01-30T06:32:41.388Z,0.90
2019-01-30T06:35:10.564Z,0.90
2019-01-30T06:37:39.678Z,0.90
2019-01-30T06:40:12.712Z,1.00
2019-01-30T06:42:41.909Z,1.00
2019-01-30T06:45:10.986Z,1.00
2019-01-30T06:47:39.961Z,1.00
2019-01-30T06:50:09.683Z,1.00
2019-01-30T06:52:38.902Z,1.10
2019-01-30T06:55:07.824Z,1.10
2019-01-30T06:57:36.776Z,1.10
2019-01-30T07:00:12.544Z,1.10
2019-01-30T07:02:41.582Z,1.10
2019-01-30T07:05:10.617Z,1.10
2019-01-30T07:07:39.504Z,1.20
2019-01-30T07:10:11.993Z,1.20
2019-01-30T07:12:41.109Z,1.10
2019-01-30T07:15:10.091Z,1.10
2019-01-30T07:17:39.055Z,1.20
2019-01-30T07:20:08.517Z,1.20
2019-01-30T07:22:37.506Z,1.10
2019-01-30T07:25:07.696Z,1.20
2019-01-30T07:27:36.724Z,1.20
2019-01-30T07:30:18.194Z,1.30
2019-01-30T07:32:47.161Z,1.30
2019-01-30T07:35:16.133Z,1.40
2019-01-30T07:37:45.256Z,1.40
2019-01-30T07:40:14.372Z,1.50
2019-01-30T07:42:43.448Z,1.50
2019-01-30T07:45:14.818Z,1.50
2019-01-30T07:47:43.957Z,1.60
2019-01-30T07:50:13.007Z,1.60
2019-01-30T07:52:42.145Z,1.70
2019-01-30T07:55:13.020Z,1.80
2019-01-30T07:57:42.143Z,1.90
2019-01-30T08:00:31.109Z,1.90
2019-01-30T08:03:00.029Z,2.00
2019-01-30T08:05:28.940Z,2.20
2019-01-30T08:07:57.979Z,2.40
2019-01-30T08:10:27.002Z,2.50
2019-01-30T08:12:56.045Z,2.50
2019-01-30T08:15:25.288Z,2.70
2019-01-30T08:17:54.293Z,2.70
2019-01-30T08:20:23.255Z,2.70
2019-01-30T08:22:52.296Z,2.80
2019-01-30T08:25:23.230Z,2.90
2019-01-30T08:27:52.829Z,2.90
2019-01-30T08:30:28.118Z,3.00
2019-01-30T08:33:04.740Z,3.00
2019-01-30T08:35:29.652Z,3.10
2019-01-30T08:37:58.844Z,3.10
2019-01-30T08:40:27.885Z,3.10
2019-01-30T08:42:56.919Z,3.10
2019-01-30T08:45:27.858Z,3.10
2019-01-30T08:47:56.853Z,3.10
2019-01-30T08:50:27.394Z,3.20
2019-01-30T08:52:56.448Z,3.30
2019-01-30T08:55:25.727Z,3.30
2019-01-30T08:57:54.970Z,3.30
2019-01-30T09:00:25.888Z,3.40
2019-01-30T09:02:55.013Z,3.40
2019-01-30T09:05:25.217Z,3.40
2019-01-30T09:07:54.424Z,3.30
2019-01-30T09:10:24.347Z,3.40
2019-01-30T09:12:53.443Z,3.40
2019-01-30T09:15:24.128Z,3.50
2019-01-30T09:17:53.132Z,3.40
2019-01-30T09:20:23.146Z,3.40
2019-01-30T09:22:52.093Z,3.50
2019-01-30T09:25:23.004Z,3.40
2019-01-30T09:27:52.321Z,3.40
2019-01-30T09:30:27.535Z,3.50
2019-01-30T09:32:56.679Z,3.60
2019-01-30T09:35:25.805Z,3.70
2019-01-30T09:37:54.954Z,3.70
2019-01-30T09:40:24.065Z,3.70
2019-01-30T09:42:53.146Z,3.90
2019-01-30T09:45:22.600Z,3.80
2019-01-30T09:47:51.669Z,3.80
2019-01-30T09:50:20.883Z,3.90
2019-01-30T09:52:49.910Z,4.10
2019-01-30T09:55:18.993Z,4.30
2019-01-30T09:57:47.928Z,4.30
2019-01-30T10:00:29.836Z,4.20
2019-01-30T10:02:58.839Z,4.00
2019-01-30T10:05:27.937Z,4.20
2019-01-30T10:07:56.918Z,4.30
2019-01-30T10:10:31.061Z,4.40
2019-01-30T10:13:00.159Z,4.70
2019-01-30T10:15:31.896Z,4.90
2019-01-30T10:18:01.350Z,5.30
2019-01-30T10:20:30.997Z,5.10
2019-01-30T10:23:00.083Z,5.80
2019-01-30T10:25:29.149Z,6.40
2019-01-30T10:27:58.135Z,7.00
2019-01-30T10:30:30.350Z,7.30
2019-01-30T10:33:01.063Z,7.60
2019-01-30T10:35:30.080Z,7.30
2019-01-30T10:37:59.389Z,7.50
2019-01-30T10:40:28.436Z,8.30
2019-01-30T10:42:57.729Z,6.50
2019-01-30T10:45:26.777Z,5.90
2019-01-30T10:47:55.728Z,6.50
2019-01-30T10:50:25.824Z,6.10
2019-01-30T10:52:54.906Z,5.70
2019-01-30T10:55:25.698Z,5.30
2019-01-30T10:57:56.526Z,4.80
2019-01-30T11:00:28.381Z,4.80
2019-01-30T11:02:57.402Z,4.80
2019-01-30T11:05:26.597Z,4.60
2019-01-30T11:07:55.607Z,4.80
2019-01-30T11:10:24.583Z,4.80
2019-01-30T11:12:53.628Z,4.70
2019-01-30T11:15:23.880Z,4.70
2019-01-30T11:17:52.976Z,4.80
2019-01-30T11:20:22.274Z,4.70
2019-01-30T11:22:53.522Z,4.70
2019-01-30T11:25:24.774Z,4.70
2019-01-30T11:27:53.745Z,4.70
2019-01-30T11:30:22.776Z,4.70
2019-01-30T11:32:51.806Z,4.90
2019-01-30T11:35:20.748Z,4.70
2019-01-30T11:37:49.889Z,4.60
2019-01-30T11:40:19.638Z,4.40
2019-01-30T11:42:48.737Z,4.40
2019-01-30T11:45:20.427Z,4.50
2019-01-30T11:47:49.576Z,4.50
2019-01-30T11:50:18.682Z,4.50
2019-01-30T11:52:47.837Z,4.60
2019-01-30T11:55:17.168Z,4.50
2019-01-30T11:57:46.138Z,4.50
2019-01-30T12:00:22.340Z,4.50
2019-01-30T12:02:51.393Z,4.50
2019-01-30T12:05:20.576Z,4.40
2019-01-30T12:07:49.584Z,4.40
2019-01-30T12:10:18.698Z,4.30
2019-01-30T12:12:47.708Z,4.40
2019-01-30T12:15:18.341Z,4.30
2019-01-30T12:17:47.447Z,4.30
2019-01-30T12:20:16.762Z,4.30
2019-01-30T12:22:45.833Z,4.50
2019-01-30T12:25:16.080Z,4.30
2019-01-30T12:27:44.973Z,4.40
2019-01-30T12:30:20.423Z,4.30
2019-01-30T12:32:49.414Z,4.30
2019-01-30T12:35:18.507Z,4.40
2019-01-30T12:37:47.692Z,4.30
2019-01-30T12:40:18.298Z,4.20
2019-01-30T12:42:47.451Z,4.20
2019-01-30T12:45:19.145Z,4.30
2019-01-30T12:47:48.136Z,4.40
2019-01-30T12:50:17.279Z,4.60
2019-01-30T12:52:46.326Z,4.70
2019-01-30T12:55:15.352Z,4.80
2019-01-30T12:57:44.619Z,4.60
2019-01-30T13:00:19.397Z,4.50
2019-01-30T13:02:48.481Z,4.60
2019-01-30T13:05:18.973Z,4.50
2019-01-30T13:07:48.160Z,4.40
2019-01-30T13:10:17.202Z,4.40
2019-01-30T13:12:46.327Z,4.40
2019-01-30T13:15:16.663Z,4.40
2019-01-30T13:17:46.831Z,4.40
2019-01-30T13:20:18.069Z,4.30
2019-01-30T13:22:47.048Z,4.40
2019-01-30T13:25:24.628Z,4.30
2019-01-30T13:27:53.672Z,4.20
2019-01-30T13:30:25.241Z,4.10
2019-01-30T13:32:54.350Z,4.30
2019-01-30T13:35:23.189Z,4.30
2019-01-30T13:37:52.158Z,4.40
2019-01-30T13:40:23.741Z,4.30
2019-01-30T13:42:52.912Z,4.30
2019-01-30T13:45:21.909Z,4.30
2019-01-30T13:47:51.005Z,4.30
2019-01-30T13:50:21.522Z,4.50
2019-01-30T13:52:50.664Z,4.40
2019-01-30T13:55:19.866Z,4.40
2019-01-30T13:57:48.836Z,4.40
2019-01-30T14:00:20.622Z,4.70
2019-01-30T14:02:49.721Z,4.70
2019-01-30T14:05:18.925Z,4.50
2019-01-30T14:07:47.991Z,4.40
2019-01-30T14:10:16.880Z,4.70
2019-01-30T14:12:46.065Z,4.40
2019-01-30T14:15:16.925Z,4.30
2019-01-30T14:17:46.002Z,4.10
2019-01-30T14:20:17.046Z,4.00
2019-01-30T14:22:47.484Z,4.10
2019-01-30T14:25:16.657Z,4.10
2019-01-30T14:27:45.961Z,4.00
2019-01-30T14:30:19.150Z,3.90
2019-01-30T14:32:48.170Z,3.70
2019-01-30T14:35:17.571Z,3.50
2019-01-30T14:37:46.653Z,3.50
2019-01-30T14:40:16.809Z,3.60
2019-01-30T14:42:45.686Z,3.70
2019-01-30T14:45:16.360Z,3.80
2019-01-30T14:47:45.716Z,3.50
2019-01-30T14:50:18.353Z,3.50
2019-01-30T14:52:47.406Z,3.30
2019-01-30T14:55:16.943Z,3.30
2019-01-30T14:57:46.077Z,3.30
2019-01-30T15:00:20.242Z,3.10
2019-01-30T15:02:49.275Z,3.00
2019-01-30T15:05:22.507Z,2.90
2019-01-30T15:07:49.577Z,2.80
2019-01-30T15:10:19.391Z,2.70
2019-01-30T15:12:48.496Z,2.50
2019-01-30T15:15:19.596Z,2.40
2019-01-30T15:17:48.642Z,2.40
2019-01-30T15:20:19.727Z,2.40
2019-01-30T15:22:48.696Z,2.30
2019-01-30T15:25:18.704Z,2.40
2019-01-30T15:27:47.804Z,2.50
2019-01-30T15:32:46.872Z,2.40
2019-01-30T15:35:15.969Z,2.40
2019-01-30T15:37:45.040Z,2.40
2019-01-30T15:40:16.288Z,2.30
2019-01-30T15:42:49.390Z,2.40
2019-01-30T15:45:19.128Z,2.30
2019-01-30T15:47:48.256Z,2.30
2019-01-30T15:50:19.581Z,2.30
2019-01-30T15:52:48.686Z,2.40
2019-01-30T15:55:17.799Z,2.30
2019-01-30T15:57:49.412Z,2.30
2019-01-30T16:00:24.908Z,2.30
2019-01-30T16:02:55.188Z,2.30
2019-01-30T16:05:24.296Z,2.20
2019-01-30T16:07:53.380Z,2.30
2019-01-30T16:10:22.600Z,2.30
2019-01-30T16:12:51.586Z,2.30
2019-01-30T16:15:24.776Z,2.30
2019-01-30T16:17:53.772Z,2.30
2019-01-30T16:20:22.857Z,2.20
2019-01-30T16:22:51.955Z,2.20
2019-01-30T16:25:21.142Z,2.30
2019-01-30T16:27:50.253Z,2.20
2019-01-30T16:30:20.744Z,2.20
2019-01-30T16:32:49.899Z,2.20
2019-01-30T16:35:22.321Z,2.10
2019-01-30T16:37:51.432Z,2.10
2019-01-30T16:40:20.489Z,2.10
2019-01-30T16:42:49.749Z,2.20
2019-01-30T16:45:23.632Z,2.10
2019-01-30T16:47:53.612Z,2.20
2019-01-30T16:50:22.632Z,2.10
2019-01-30T16:52:51.717Z,2.20
2019-01-30T16:55:20.761Z,2.20
2019-01-30T16:57:50.129Z,2.20
2019-01-30T17:00:21.426Z,2.30
2019-01-30T17:02:50.598Z,2.30
2019-01-30T17:05:19.641Z,2.30
2019-01-30T17:07:48.700Z,2.30
2019-01-30T17:10:17.840Z,2.20
2019-01-30T17:12:46.973Z,2.30
2019-01-30T17:15:18.208Z,2.30
2019-01-30T17:17:47.367Z,2.20
2019-01-30T17:20:21.519Z,2.30
2019-01-30T17:22:50.585Z,2.30
2019-01-30T17:25:19.909Z,2.30
2019-01-30T17:27:48.970Z,2.30
2019-01-30T17:30:24.684Z,2.20
2019-01-30T17:32:53.788Z,2.30
2019-01-30T17:35:22.912Z,2.30
2019-01-30T17:37:51.991Z,2.20
2019-01-30T17:40:22.720Z,2.10
2019-01-30T17:42:51.781Z,2.00
2019-01-30T17:45:20.904Z,2.00
2019-01-30T17:47:50.027Z,1.90
2019-01-30T17:50:21.209Z,1.80
2019-01-30T17:52:50.341Z,1.80
2019-01-30T17:55:19.438Z,1.80
2019-01-30T17:57:48.548Z,1.70
2019-01-30T18:00:28.777Z,1.70
2019-01-30T18:02:57.951Z,1.70
2019-01-30T18:05:27.003Z,1.70
2019-01-30T18:07:56.122Z,1.70
2019-01-30T18:10:25.255Z,1.70
2019-01-30T18:12:54.214Z,1.70
2019-01-30T18:15:23.320Z,1.70
2019-01-30T18:17:54.277Z,1.70
2019-01-30T18:20:23.278Z,1.70
2019-01-30T18:22:52.273Z,1.70
2019-01-30T18:25:21.391Z,1.70
2019-01-30T18:27:50.552Z,1.70
2019-01-30T18:30:19.605Z,1.60
2019-01-30T18:32:48.901Z,1.60
2019-01-30T18:35:18.002Z,1.60
2019-01-30T18:37:47.130Z,1.60
2019-01-30T18:40:20.485Z,1.60
2019-01-30T18:42:49.599Z,1.50
2019-01-30T18:45:23.826Z,1.50
2019-01-30T18:47:53.102Z,1.50
2019-01-30T18:50:25.113Z,1.40
2019-01-30T18:52:54.185Z,1.40
2019-01-30T18:55:23.263Z,1.40
2019-01-30T18:57:52.366Z,1.40
2019-01-30T19:00:30.078Z,1.40
2019-01-30T19:03:00.721Z,1.30
2019-01-30T19:05:30.884Z,1.30
2019-01-30T19:07:59.965Z,1.30
2019-01-30T19:10:28.996Z,1.30
2019-01-30T19:12:58.137Z,1.30
2019-01-30T19:15:27.331Z,1.40
2019-01-30T19:17:56.380Z,1.40
2019-01-30T19:20:28.574Z,1.40
2019-01-30T19:22:57.650Z,1.40
2019-01-30T19:25:26.727Z,1.30
2019-01-30T19:27:56.281Z,1.30
2019-01-30T19:30:27.393Z,1.30
2019-01-30T19:32:56.485Z,1.30
2019-01-30T19:35:25.611Z,1.40
2019-01-30T19:37:54.632Z,1.40
2019-01-30T19:40:23.827Z,1.40
2019-01-30T19:42:52.800Z,1.50
2019-01-30T19:45:24.899Z,1.40
2019-01-30T19:47:54.044Z,1.40
2019-01-30T19:50:27.579Z,1.40
2019-01-30T19:52:57.620Z,1.50
2019-01-30T19:55:26.688Z,1.40
2019-01-30T19:57:57.299Z,1.50
2019-01-30T20:00:28.886Z,1.50
2019-01-30T20:02:58.081Z,1.50
2019-01-30T20:05:27.091Z,1.60
2019-01-30T20:07:56.239Z,1.60
2019-01-30T20:10:28.160Z,1.60
2019-01-30T20:12:57.290Z,1.60
2019-01-30T20:15:26.440Z,1.60
2019-01-30T20:17:55.557Z,1.60
2019-01-30T20:20:24.641Z,1.60
2019-01-30T20:22:53.762Z,1.50
2019-01-30T20:25:25.236Z,1.40
2019-01-30T20:27:54.369Z,1.30
2019-01-30T20:30:23.461Z,1.30
2019-01-30T20:32:52.575Z,1.40
2019-01-30T20:35:21.618Z,1.30
2019-01-30T20:37:51.002Z,1.30
2019-01-30T20:40:24.668Z,1.30
2019-01-30T20:42:53.822Z,1.30
2019-01-30T20:45:33.091Z,1.30
2019-01-30T20:47:53.788Z,1.20
2019-01-30T20:50:25.069Z,1.20
2019-01-30T20:52:54.221Z,1.20
2019-01-30T20:55:23.389Z,1.20
2019-01-30T20:57:52.508Z,1.20
2019-01-30T21:00:23.729Z,1.20
2019-01-30T21:02:52.946Z,1.10
2019-01-30T21:05:22.044Z,1.10
2019-01-30T21:07:51.153Z,1.00
2019-01-30T21:10:22.484Z,1.00
2019-01-30T21:12:51.595Z,1.00
2019-01-30T21:15:20.690Z,1.00
2019-01-30T21:17:49.769Z,1.00
2019-01-30T21:20:18.891Z,0.90
2019-01-30T21:22:47.940Z,0.90
2019-01-30T21:25:18.773Z,0.90
2019-01-30T21:27:48.093Z,0.80
2019-01-30T21:30:20.033Z,0.80
2019-01-30T21:32:49.081Z,0.80
2019-01-30T21:35:18.318Z,0.80
2019-01-30T21:37:49.010Z,0.70
2019-01-30T21:40:18.582Z,0.60
2019-01-30T21:42:47.864Z,0.60
2019-01-30T21:45:18.523Z,0.60
2019-01-30T21:47:47.676Z,0.50
2019-01-30T21:50:17.762Z,0.50
2019-01-30T21:52:46.905Z,0.50
2019-01-30T21:55:17.992Z,0.60
2019-01-30T21:57:47.086Z,0.50
2019-01-30T22:00:21.239Z,0.50
2019-01-30T22:02:50.356Z,0.50
2019-01-30T22:05:19.457Z,0.40
2019-01-30T22:08:00.066Z,0.40
2019-01-30T22:10:24.281Z,0.40
2019-01-30T22:12:53.471Z,0.50
2019-01-30T22:15:22.704Z,0.40
2019-01-30T22:17:51.808Z,0.40
2019-01-30T22:20:22.839Z,0.40
2019-01-30T22:22:52.040Z,0.30
2019-01-30T22:25:21.868Z,0.40
2019-01-30T22:27:51.026Z,0.30
2019-01-30T22:30:32.601Z,0.40
2019-01-30T22:33:01.755Z,0.40
2019-01-30T22:35:30.811Z,0.40
2019-01-30T22:37:59.869Z,0.40
2019-01-30T22:40:28.964Z,0.40
2019-01-30T22:42:58.088Z,0.30
2019-01-30T22:45:27.350Z,0.30
2019-01-30T22:47:56.577Z,0.30
2019-01-30T22:50:25.736Z,0.30
2019-01-30T22:52:54.936Z,0.30
2019-01-30T22:55:24.441Z,0.30
2019-01-30T22:57:53.545Z,0.30
2019-01-30T23:00:29.846Z,0.20
2019-01-30T23:02:59.216Z,0.30
2019-01-30T23:05:44.357Z,0.30
2019-01-30T23:08:23.307Z,0.30
2019-01-30T23:11:24.283Z,0.30
2019-01-30T23:13:57.163Z,0.30
2019-01-30T23:17:19.820Z,0.20
2019-01-30T23:20:12.864Z,0.30
2019-01-30T23:23:26.617Z,0.20
2019-01-30T23:26:11.514Z,0.20
2019-01-30T23:29:13.074Z,0.10
2019-01-30T23:32:22.383Z,0.10
2019-01-30T23:35:34.523Z,0.10
2019-01-30T23:38:40.656Z,0.10
2019-01-30T23:41:47.638Z,0.10
2019-01-30T23:44:57.751Z,0.10
2019-01-30T23:48:17.234Z,0.10
2019-01-30T23:50:59.598Z,0.10
2019-01-30T23:53:57.932Z,0.00
2019-01-30T23:57:14.399Z,0.00
